Time,TemperatureF,DewpointF,PressureIn,WindDirection,WindDirectionDegrees,WindSpeedMPH,WindSpeedGustMPH,Humidity,HourlyPrecipIn,Conditions,Clouds,dailyrainin,SoftwareType,DateUTC
2013-06-04 00:01:00,54.6,50.2,30.03,NE,49,0.0,0.0,85,0.00,,CLR,0.00,VWS V14.01,2013-06-04 05:01:00,
2013-06-04 00:06:00,54.5,50.1,30.03,NE,49,0.0,0.0,85,0.00,,CLR,0.00,VWS V14.01,2013-06-04 05:06:00,
2013-06-04 00:11:00,54.4,50.0,30.03,NE,49,0.0,0.0,85,0.00,,CLR,0.00,VWS V14.01,2013-06-04 05:11:00,
2013-06-04 00:16:00,54.3,49.9,30.04,NE,49,0.0,0.0,85,0.00,,CLR,0.00,VWS V14.01,2013-06-04 05:16:00,
2013-06-04 00:21:00,54.2,49.8,30.04,NE,49,0.0,0.0,85,0.00,,CLR,0.00,VWS V14.01,2013-06-04 05:21:00,
2013-06-04 00:26:00,54.1,49.7,30.04,NE,49,0.0,0.0,85,0.00,,CLR,0.00,VWS V14.01,2013-06-04 05:26:00,
2013-06-04 00:31:00,54.0,49.6,30.03,NE,49,0.0,0.0,85,0.00,,CLR,0.00,VWS V14.01,2013-06-04 05:31:00,
2013-06-04 00:36:00,54.1,49.7,30.04,NE,49,0.0,0.0,85,0.00,,CLR,0.00,VWS V14.01,2013-06-04 05:36:00,
2013-06-04 00:41:00,54.1,49.7,30.04,NE,49,0.0,0.0,85,0.00,,CLR,0.00,VWS V14.01,2013-06-04 05:41:00,
2013-06-04 00:46:00,54.0,49.6,30.03,NE,49,0.0,0.0,85,0.00,,CLR,0.00,VWS V14.01,2013-06-04 05:46:00,
2013-06-04 00:51:00,53.9,49.5,30.04,NE,49,0.0,0.0,85,0.00,,CLR,0.00,VWS V14.01,2013-06-04 05:51:00,
2013-06-04 00:56:00,53.8,49.4,30.03,NE,49,0.0,0.0,85,0.00,,CLR,0.00,VWS V14.01,2013-06-04 05:56:00,
2013-06-04 01:01:00,53.7,49.3,30.03,NE,49,0.0,0.0,85,0.00,,CLR,0.00,VWS V14.01,2013-06-04 06:01:00,
2013-06-04 01:06:00,53.7,49.3,30.04,NE,49,0.0,0.0,85,0.00,,CLR,0.00,VWS V14.01,2013-06-04 06:06:00,
2013-06-04 01:11:00,53.5,49.1,30.04,NE,49,0.0,0.0,85,0.00,,CLR,0.00,VWS V14.01,2013-06-04 06:11:00,
2013-06-04 01:16:00,53.4,49.0,30.04,NE,49,0.0,0.0,85,0.00,,CLR,0.00,VWS V14.01,2013-06-04 06:16:00,
2013-06-04 01:21:00,53.3,48.9,30.03,NE,49,0.0,0.0,85,0.00,,CLR,0.00,VWS V14.01,2013-06-04 06:21:00,
2013-06-04 01:26:00,53.3,48.9,30.03,NE,49,0.0,0.0,85,0.00,,CLR,0.00,VWS V14.01,2013-06-04 06:26:00,
2013-06-04 01:31:00,53.3,48.9,30.03,NE,49,0.0,0.0,85,0.00,,CLR,0.00,VWS V14.01,2013-06-04 06:31:00,
2013-06-04 01:36:00,53.3,48.9,30.03,NE,49,0.0,0.0,85,0.00,,CLR,0.00,VWS V14.01,2013-06-04 06:36:00,
2013-06-04 01:41:00,53.3,48.9,30.03,NE,49,0.0,0.0,85,0.00,,CLR,0.00,VWS V14.01,2013-06-04 06:41:00,
2013-06-04 01:46:00,53.2,48.5,30.03,NE,49,0.0,0.0,84,0.00,,CLR,0.00,VWS V14.01,2013-06-04 06:46:00,
2013-06-04 01:51:00,53.2,48.5,30.03,NE,49,0.0,0.0,84,0.00,,CLR,0.00,VWS V14.01,2013-06-04 06:51:00,
2013-06-04 01:56:00,53.1,48.4,30.03,NE,49,0.0,0.0,84,0.00,,CLR,0.00,VWS V14.01,2013-06-04 06:56:00,
2013-06-04 02:01:00,52.9,48.2,30.03,NE,49,0.0,0.0,84,0.00,,CLR,0.00,VWS V14.01,2013-06-04 07:01:00,
2013-06-04 02:11:00,52.7,48.3,30.03,NE,49,0.0,0.0,85,0.00,,,0.00,VWS V14.01,2013-06-04 07:11:00,
2013-06-04 02:16:00,52.6,48.2,30.03,NE,49,0.0,0.0,85,0.00,,,0.00,VWS V14.01,2013-06-04 07:16:00,
2013-06-04 02:21:00,52.5,48.1,30.03,NE,49,0.0,0.0,85,0.00,,,0.00,VWS V14.01,2013-06-04 07:21:00,
2013-06-04 02:26:00,52.6,48.2,30.03,NE,49,0.0,0.0,85,0.00,,,0.00,VWS V14.01,2013-06-04 07:26:00,
2013-06-04 02:31:00,52.6,48.2,30.03,NE,49,0.0,0.0,85,0.00,,,0.00,VWS V14.01,2013-06-04 07:31:00,
2013-06-04 02:36:00,52.5,48.1,30.03,NE,49,0.0,0.0,85,0.00,,,0.00,VWS V14.01,2013-06-04 07:36:00,
2013-06-04 02:41:00,52.4,47.7,30.03,NE,49,0.0,0.0,84,0.00,,,0.00,VWS V14.01,2013-06-04 07:41:00,
2013-06-04 02:51:00,52.4,47.7,30.02,NE,49,0.0,0.0,84,0.00,,,0.00,VWS V14.01,2013-06-04 07:51:00,
2013-06-04 02:56:00,52.4,47.7,30.03,NE,49,0.0,0.0,84,0.00,,,0.00,VWS V14.01,2013-06-04 07:56:00,
2013-06-04 03:01:00,52.3,47.6,30.03,NE,49,0.0,0.0,84,0.00,,,0.00,VWS V14.01,2013-06-04 08:01:00,
2013-06-04 03:06:00,52.2,47.5,30.03,NE,49,0.0,0.0,84,0.00,,CLR,0.00,VWS V14.01,2013-06-04 08:06:00,
2013-06-04 03:17:00,52.1,47.7,30.03,NE,49,0.0,0.0,85,0.00,,CLR,0.00,VWS V14.01,2013-06-04 08:17:00,
2013-06-04 03:22:00,51.9,47.5,30.03,NE,49,0.0,0.0,85,0.00,,CLR,0.00,VWS V14.01,2013-06-04 08:22:00,
2013-06-04 03:27:00,51.9,47.5,30.04,NE,49,0.0,0.0,85,0.00,,CLR,0.00,VWS V14.01,2013-06-04 08:27:00,
2013-06-04 03:32:00,51.8,47.4,30.04,NE,49,0.0,0.0,85,0.00,,CLR,0.00,VWS V14.01,2013-06-04 08:32:00,
2013-06-04 03:37:00,51.7,47.3,30.04,NE,49,0.0,0.0,85,0.00,,CLR,0.00,VWS V14.01,2013-06-04 08:37:00,
2013-06-04 03:42:00,51.7,47.0,30.05,NE,49,0.0,0.0,84,0.00,,CLR,0.00,VWS V14.01,2013-06-04 08:42:00,
2013-06-04 03:47:00,51.6,46.9,30.04,NE,49,0.0,0.0,84,0.00,,CLR,0.00,VWS V14.01,2013-06-04 08:47:00,
2013-06-04 03:52:00,51.6,46.9,30.05,NE,49,0.0,0.0,84,0.00,,CLR,0.00,VWS V14.01,2013-06-04 08:52:00,
2013-06-04 03:57:00,51.5,46.8,30.06,NE,49,0.0,0.0,84,0.00,,CLR,0.00,VWS V14.01,2013-06-04 08:57:00,
2013-06-04 04:02:00,51.5,46.8,30.07,NE,49,0.0,0.0,84,0.00,,CLR,0.00,VWS V14.01,2013-06-04 09:02:00,
2013-06-04 04:07:00,51.5,46.8,30.07,NE,49,0.0,0.0,84,0.00,,CLR,0.00,VWS V14.01,2013-06-04 09:07:00,
2013-06-04 04:12:00,51.5,46.8,30.08,NE,49,0.0,0.0,84,0.00,,CLR,0.00,VWS V14.01,2013-06-04 09:12:00,
2013-06-04 04:17:00,51.4,46.7,30.08,NE,49,0.0,0.0,84,0.00,,CLR,0.00,VWS V14.01,2013-06-04 09:17:00,
2013-06-04 04:22:00,51.4,46.7,30.06,NE,49,0.0,0.0,84,0.00,,CLR,0.00,VWS V14.01,2013-06-04 09:22:00,
2013-06-04 04:27:00,51.4,47.0,30.06,NE,49,0.0,0.0,85,0.00,,CLR,0.00,VWS V14.01,2013-06-04 09:27:00,
2013-06-04 04:32:00,51.3,47.0,30.06,NE,49,0.0,0.0,85,0.00,,CLR,0.00,VWS V14.01,2013-06-04 09:32:00,
2013-06-04 04:37:00,51.3,47.0,30.06,NE,49,0.0,0.0,85,0.00,,CLR,0.00,VWS V14.01,2013-06-04 09:37:00,
2013-06-04 04:42:00,51.4,46.7,30.06,NE,49,0.0,0.0,84,0.00,,CLR,0.00,VWS V14.01,2013-06-04 09:42:00,
2013-06-04 04:47:00,51.3,47.0,30.06,NE,49,0.0,0.0,85,0.00,,CLR,0.00,VWS V14.01,2013-06-04 09:47:00,
2013-06-04 04:52:00,51.3,47.0,30.06,NE,49,0.0,0.0,85,0.00,,CLR,0.00,VWS V14.01,2013-06-04 09:52:00,
2013-06-04 04:57:00,51.3,47.0,30.06,NE,49,0.0,0.0,85,0.00,,CLR,0.00,VWS V14.01,2013-06-04 09:57:00,
2013-06-04 05:02:00,51.3,47.0,30.05,NE,49,0.0,0.0,85,0.00,,,0.00,VWS V14.01,2013-06-04 10:02:00,
2013-06-04 05:07:00,51.3,47.0,30.04,NE,49,0.0,0.0,85,0.00,,,0.00,VWS V14.01,2013-06-04 10:07:00,
2013-06-04 05:12:00,51.2,46.8,30.04,ENE,65,0.0,0.0,85,0.00,,,0.00,VWS V14.01,2013-06-04 10:12:00,
2013-06-04 05:17:00,51.3,47.0,30.04,ENE,65,0.0,0.0,85,0.00,,,0.00,VWS V14.01,2013-06-04 10:17:00,
2013-06-04 05:22:00,51.4,47.0,30.04,ENE,65,0.0,0.0,85,0.00,,,0.00,VWS V14.01,2013-06-04 10:22:00,
2013-06-04 05:27:00,51.4,47.0,30.05,ENE,65,0.0,0.0,85,0.00,,,0.00,VWS V14.01,2013-06-04 10:27:00,
2013-06-04 05:32:00,51.3,47.0,30.05,ENE,65,0.0,0.0,85,0.00,,,0.00,VWS V14.01,2013-06-04 10:32:00,
2013-06-04 05:37:00,51.3,47.0,30.05,ENE,65,0.0,0.0,85,0.00,,,0.00,VWS V14.01,2013-06-04 10:37:00,
2013-06-04 05:42:00,51.2,46.8,30.05,ENE,65,0.0,0.0,85,0.00,,CLR,0.00,VWS V14.01,2013-06-04 10:42:00,
2013-06-04 05:47:00,51.2,46.8,30.06,ENE,65,0.0,0.0,85,0.00,,CLR,0.00,VWS V14.01,2013-06-04 10:47:00,
2013-06-04 05:52:00,51.1,46.8,30.05,ENE,65,0.0,0.0,85,0.00,,CLR,0.00,VWS V14.01,2013-06-04 10:52:00,
2013-06-04 05:57:00,51.1,46.8,30.05,ENE,65,0.0,0.0,85,0.00,,CLR,0.00,VWS V14.01,2013-06-04 10:57:00,
2013-06-04 06:02:00,51.1,46.8,30.05,ENE,65,0.0,0.0,85,0.00,,CLR,0.00,VWS V14.01,2013-06-04 11:02:00,
2013-06-04 06:07:00,51.1,46.8,30.05,ENE,65,0.0,0.0,85,0.00,,CLR,0.00,VWS V14.01,2013-06-04 11:07:00,
2013-06-04 06:12:00,51.2,46.8,30.05,ENE,65,0.0,0.0,85,0.00,,CLR,0.00,VWS V14.01,2013-06-04 11:12:00,
2013-06-04 06:17:00,51.3,47.0,30.05,ENE,65,0.0,0.0,85,0.00,,CLR,0.00,VWS V14.01,2013-06-04 11:17:00,
2013-06-04 06:22:00,51.5,47.2,30.05,ENE,65,0.0,0.0,85,0.00,,CLR,0.00,VWS V14.01,2013-06-04 11:22:00,
2013-06-04 06:27:00,51.7,47.3,30.05,ENE,65,0.0,0.0,85,0.00,,CLR,0.00,VWS V14.01,2013-06-04 11:27:00,
2013-06-04 06:32:00,51.9,47.5,30.05,ENE,65,0.0,0.0,85,0.00,,CLR,0.00,VWS V14.01,2013-06-04 11:32:00,
2013-06-04 06:37:00,52.1,47.7,30.05,ENE,65,0.0,0.0,85,0.00,,CLR,0.00,VWS V14.01,2013-06-04 11:37:00,
2013-06-04 06:42:00,52.4,48.0,30.05,ENE,65,0.0,0.0,85,0.00,,CLR,0.00,VWS V14.01,2013-06-04 11:42:00,
2013-06-04 06:47:00,52.6,48.2,30.05,ENE,65,0.0,0.0,85,0.00,,CLR,0.00,VWS V14.01,2013-06-04 11:47:00,
2013-06-04 06:52:00,52.9,48.5,30.06,ENE,65,0.0,1.0,85,0.00,,CLR,0.00,VWS V14.01,2013-06-04 11:52:00,
2013-06-04 06:57:00,53.2,48.8,30.06,ENE,65,0.0,1.0,85,0.00,,CLR,0.00,VWS V14.01,2013-06-04 11:57:00,
2013-06-04 07:02:00,53.7,49.3,30.06,ENE,65,0.0,0.0,85,0.00,,CLR,0.00,VWS V14.01,2013-06-04 12:02:00,
2013-06-04 07:07:00,54.2,49.8,30.07,ENE,65,0.0,0.0,85,0.00,,CLR,0.00,VWS V14.01,2013-06-04 12:07:00,
2013-06-04 07:12:00,54.6,50.2,30.08,ENE,65,0.0,0.0,85,0.00,,CLR,0.00,VWS V14.01,2013-06-04 12:12:00,
2013-06-04 07:17:00,55.1,50.7,30.08,ENE,65,0.0,1.0,85,0.00,,CLR,0.00,VWS V14.01,2013-06-04 12:17:00,
2013-06-04 07:22:00,55.5,51.1,30.08,ENE,65,0.0,0.0,85,0.00,,CLR,0.00,VWS V14.01,2013-06-04 12:22:00,
2013-06-04 07:27:00,56.0,51.6,30.07,ENE,65,0.0,1.0,85,0.00,,CLR,0.00,VWS V14.01,2013-06-04 12:27:00,
2013-06-04 07:32:00,56.8,52.0,30.08,ENE,65,0.0,0.0,84,0.00,,CLR,0.00,VWS V14.01,2013-06-04 12:32:00,
2013-06-04 07:37:00,57.3,52.8,30.08,ENE,65,0.0,1.0,85,0.00,,CLR,0.00,VWS V14.01,2013-06-04 12:37:00,
2013-06-04 07:42:00,57.8,53.0,30.08,ENE,69,0.0,0.0,84,0.00,,CLR,0.00,VWS V14.01,2013-06-04 12:42:00,
2013-06-04 07:47:00,58.5,54.0,30.08,ENE,69,0.0,1.0,85,0.00,,CLR,0.00,VWS V14.01,2013-06-04 12:47:00,
2013-06-04 07:52:00,59.2,54.7,30.08,East,84,0.0,0.0,85,0.00,,CLR,0.00,VWS V14.01,2013-06-04 12:52:00,
2013-06-04 07:57:00,60.0,55.5,30.08,East,84,0.0,1.0,85,0.00,,CLR,0.00,VWS V14.01,2013-06-04 12:57:00,
2013-06-04 08:02:00,60.8,55.9,30.09,East,83,1.0,3.0,84,0.00,,CLR,0.00,VWS V14.01,2013-06-04 13:02:00,
2013-06-04 08:07:00,61.4,56.2,30.09,East,83,0.0,3.0,83,0.00,,CLR,0.00,VWS V14.01,2013-06-04 13:07:00,
2013-06-04 08:12:00,61.9,56.0,30.09,East,95,0.0,0.0,81,0.00,,CLR,0.00,VWS V14.01,2013-06-04 13:12:00,
2013-06-04 08:17:00,62.4,56.2,30.08,ESE,107,2.0,4.0,80,0.00,,CLR,0.00,VWS V14.01,2013-06-04 13:17:00,
2013-06-04 08:22:00,62.8,56.2,30.08,ENE,74,0.0,0.0,79,0.00,,CLR,0.00,VWS V14.01,2013-06-04 13:22:00,
2013-06-04 08:27:00,63.4,56.4,30.08,East,84,0.0,3.0,78,0.00,,CLR,0.00,VWS V14.01,2013-06-04 13:27:00,
2013-06-04 08:32:00,63.6,56.3,30.08,SE,144,0.0,0.0,77,0.00,,CLR,0.00,VWS V14.01,2013-06-04 13:32:00,
2013-06-04 08:37:00,63.8,56.5,30.08,SE,125,1.0,5.0,77,0.00,,CLR,0.00,VWS V14.01,2013-06-04 13:37:00,
2013-06-04 08:42:00,63.9,56.6,30.08,ESE,119,0.0,4.0,77,0.00,,CLR,0.00,VWS V14.01,2013-06-04 13:42:00,
2013-06-04 08:47:00,64.2,56.8,30.07,SSW,206,3.0,5.0,77,0.00,,CLR,0.00,VWS V14.01,2013-06-04 13:47:00,
2013-06-04 08:52:00,64.5,57.1,30.07,ESE,113,0.0,2.0,77,0.00,,CLR,0.00,VWS V14.01,2013-06-04 13:52:00,
2013-06-04 08:57:00,64.7,57.3,30.06,ESE,108,4.0,4.0,77,0.00,,CLR,0.00,VWS V14.01,2013-06-04 13:57:00,
2013-06-04 09:02:00,65.2,57.5,30.06,East,79,3.0,9.0,76,0.00,,CLR,0.00,VWS V14.01,2013-06-04 14:02:00,
2013-06-04 09:07:00,65.7,57.6,30.06,ESE,109,0.0,9.0,75,0.00,,CLR,0.00,VWS V14.01,2013-06-04 14:07:00,
2013-06-04 09:12:00,66.1,57.6,30.06,SE,126,1.0,9.0,74,0.00,,CLR,0.00,VWS V14.01,2013-06-04 14:12:00,
2013-06-04 09:17:00,66.3,57.0,30.06,ESE,117,0.0,9.0,72,0.00,,CLR,0.00,VWS V14.01,2013-06-04 14:17:00,
2013-06-04 09:22:00,66.8,58.3,30.06,South,172,0.0,0.0,74,0.00,,CLR,0.00,VWS V14.01,2013-06-04 14:22:00,
2013-06-04 09:27:00,67.4,57.3,30.06,SSE,150,0.0,5.0,70,0.00,,CLR,0.00,VWS V14.01,2013-06-04 14:27:00,
2013-06-04 09:32:00,67.6,57.1,30.06,ESE,105,6.0,6.0,69,0.00,,CLR,0.00,VWS V14.01,2013-06-04 14:32:00,
2013-06-04 09:37:00,67.9,57.4,30.06,SE,131,1.0,6.0,69,0.00,,CLR,0.00,VWS V14.01,2013-06-04 14:37:00,
2013-06-04 09:42:00,68.1,57.2,30.06,SE,130,6.0,6.0,68,0.00,,CLR,0.00,VWS V14.01,2013-06-04 14:42:00,
2013-06-04 09:47:00,68.1,56.7,30.05,SE,134,6.0,9.0,67,0.00,,CLR,0.00,VWS V14.01,2013-06-04 14:47:00,
2013-06-04 09:52:00,68.3,57.3,30.05,SE,131,0.0,2.0,68,0.00,,CLR,0.00,VWS V14.01,2013-06-04 14:52:00,
2013-06-04 09:57:00,68.7,58.1,30.04,ESE,112,4.0,4.0,69,0.00,,CLR,0.00,VWS V14.01,2013-06-04 14:57:00,
2013-06-04 10:02:00,69.0,57.2,30.04,ENE,60,3.0,6.0,66,0.00,,CLR,0.00,VWS V14.01,2013-06-04 15:02:00,
2013-06-04 10:07:00,69.2,57.8,30.04,SSW,213,0.0,6.0,67,0.00,,CLR,0.00,VWS V14.01,2013-06-04 15:07:00,
2013-06-04 10:12:00,69.2,56.5,30.04,SSE,151,2.0,6.0,64,0.00,,CLR,0.00,VWS V14.01,2013-06-04 15:12:00,
2013-06-04 10:17:00,69.3,57.5,30.04,ESE,121,0.0,7.0,66,0.00,,CLR,0.00,VWS V14.01,2013-06-04 15:17:00,
2013-06-04 10:22:00,69.4,57.6,30.04,SE,144,7.0,7.0,66,0.00,,CLR,0.00,VWS V14.01,2013-06-04 15:22:00,
2013-06-04 10:27:00,69.6,56.9,30.05,SE,128,6.0,9.0,64,0.00,,CLR,0.00,VWS V14.01,2013-06-04 15:27:00,
2013-06-04 10:32:00,69.6,56.5,30.04,East,90,2.0,8.0,63,0.00,,CLR,0.00,VWS V14.01,2013-06-04 15:32:00,
2013-06-04 10:37:00,69.8,57.5,30.05,South,178,0.0,8.0,65,0.00,,CLR,0.00,VWS V14.01,2013-06-04 15:37:00,
2013-06-04 10:42:00,70.4,57.7,30.05,SSE,166,0.0,1.0,64,0.00,,CLR,0.00,VWS V14.01,2013-06-04 15:42:00,
2013-06-04 10:47:00,70.4,57.2,30.04,ESE,109,1.0,7.0,63,0.00,,CLR,0.00,VWS V14.01,2013-06-04 15:47:00,
2013-06-04 10:52:00,70.6,57.0,30.05,SSE,160,0.0,6.0,62,0.00,,CLR,0.00,VWS V14.01,2013-06-04 15:52:00,
2013-06-04 10:57:00,70.9,56.8,30.05,SSE,165,1.0,10.0,61,0.00,,CLR,0.00,VWS V14.01,2013-06-04 15:57:00,
2013-06-04 11:02:00,70.7,57.1,30.05,SSE,159,2.0,6.0,62,0.00,,CLR,0.00,VWS V14.01,2013-06-04 16:02:00,
2013-06-04 11:07:00,70.4,57.2,30.05,South,178,0.0,6.0,63,0.00,,CLR,0.00,VWS V14.01,2013-06-04 16:07:00,
2013-06-04 11:12:00,70.2,56.1,30.06,SE,130,1.0,5.0,61,0.00,,CLR,0.00,VWS V14.01,2013-06-04 16:12:00,
2013-06-04 11:18:00,71.0,57.3,30.06,SE,130,1.0,8.0,62,0.00,,CLR,0.00,VWS V14.01,2013-06-04 16:18:00,
2013-06-04 11:23:00,71.2,57.5,30.05,ESE,108,0.0,1.0,62,0.00,,CLR,0.00,VWS V14.01,2013-06-04 16:23:00,
2013-06-04 11:28:00,71.7,57.5,30.05,East,101,5.0,7.0,61,0.00,,CLR,0.00,VWS V14.01,2013-06-04 16:28:00,
2013-06-04 11:33:00,71.3,57.2,30.05,SSW,202,0.0,5.0,61,0.00,,CLR,0.00,VWS V14.01,2013-06-04 16:33:00,
2013-06-04 11:38:00,72.2,58.9,30.05,SE,145,0.0,5.0,63,0.00,,CLR,0.00,VWS V14.01,2013-06-04 16:38:00,
2013-06-04 11:43:00,72.3,57.7,30.05,SSE,152,5.0,6.0,60,0.00,,CLR,0.00,VWS V14.01,2013-06-04 16:43:00,
2013-06-04 11:48:00,71.8,57.6,30.05,South,178,0.0,6.0,61,0.00,,CLR,0.00,VWS V14.01,2013-06-04 16:48:00,
2013-06-04 11:53:00,72.2,57.6,30.05,SE,140,0.0,1.0,60,0.00,,CLR,0.00,VWS V14.01,2013-06-04 16:53:00,
2013-06-04 11:58:00,72.4,58.2,30.05,SE,126,0.0,5.0,61,0.00,,CLR,0.00,VWS V14.01,2013-06-04 16:58:00,
2013-06-04 12:03:00,72.1,57.9,30.04,SSW,193,1.0,2.0,61,0.00,,CLR,0.00,VWS V14.01,2013-06-04 17:03:00,
2013-06-04 12:08:00,72.2,58.0,30.05,SSE,159,2.0,4.0,61,0.00,,CLR,0.00,VWS V14.01,2013-06-04 17:08:00,
2013-06-04 12:13:00,72.3,57.7,30.04,SE,130,2.0,4.0,60,0.00,,CLR,0.00,VWS V14.01,2013-06-04 17:13:00,
2013-06-04 12:18:00,72.5,57.8,30.04,South,171,0.0,7.0,60,0.00,,CLR,0.00,VWS V14.01,2013-06-04 17:18:00,
2013-06-04 12:23:00,73.5,58.8,30.05,SSE,147,0.0,1.0,60,0.00,,CLR,0.00,VWS V14.01,2013-06-04 17:23:00,
2013-06-04 12:28:00,73.4,57.7,30.05,South,175,0.0,5.0,58,0.00,,CLR,0.00,VWS V14.01,2013-06-04 17:28:00,
2013-06-04 12:33:00,72.5,58.3,30.05,SSE,158,1.0,6.0,61,0.00,,CLR,0.00,VWS V14.01,2013-06-04 17:33:00,
2013-06-04 12:38:00,72.6,57.9,30.05,SSW,202,3.0,6.0,60,0.00,,CLR,0.00,VWS V14.01,2013-06-04 17:38:00,
2013-06-04 12:43:00,72.4,57.8,30.05,SSE,160,1.0,1.0,60,0.00,,CLR,0.00,VWS V14.01,2013-06-04 17:43:00,
2013-06-04 12:48:00,72.9,59.6,30.05,ESE,121,5.0,7.0,63,0.00,,CLR,0.00,VWS V14.01,2013-06-04 17:48:00,
2013-06-04 12:53:00,72.7,58.5,30.05,SE,124,4.0,4.0,61,0.00,,CLR,0.00,VWS V14.01,2013-06-04 17:53:00,
2013-06-04 12:58:00,72.8,58.1,30.04,ESE,123,0.0,5.0,60,0.00,,CLR,0.00,VWS V14.01,2013-06-04 17:58:00,
2013-06-04 13:03:00,72.4,58.2,30.05,ESE,118,0.0,1.0,61,0.00,,SCT040,0.00,VWS V14.01,2013-06-04 18:03:00,
2013-06-04 13:08:00,72.7,58.5,30.05,ESE,111,1.0,2.0,61,0.00,,SCT040,0.00,VWS V14.01,2013-06-04 18:08:00,
2013-06-04 13:13:00,73.1,59.3,30.05,ESE,113,0.0,0.0,62,0.00,,SCT040,0.00,VWS V14.01,2013-06-04 18:13:00,
2013-06-04 13:18:00,73.0,58.8,30.04,South,171,6.0,6.0,61,0.00,,SCT040,0.00,VWS V14.01,2013-06-04 18:18:00,
2013-06-04 13:23:00,72.5,59.2,30.05,SW,227,0.0,3.0,63,0.00,,SCT040,0.00,VWS V14.01,2013-06-04 18:23:00,
2013-06-04 13:28:00,73.2,59.4,30.04,South,191,5.0,5.0,62,0.00,,SCT040,0.00,VWS V14.01,2013-06-04 18:28:00,
2013-06-04 13:33:00,73.8,58.6,30.05,SSW,192,0.0,4.0,59,0.00,,SCT040,0.00,VWS V14.01,2013-06-04 18:33:00,
2013-06-04 13:38:00,73.7,58.5,30.05,SSW,196,0.0,4.0,59,0.00,,SCT040,0.00,VWS V14.01,2013-06-04 18:38:00,
2013-06-04 13:43:00,74.4,59.6,30.05,SSE,148,1.0,5.0,60,0.00,,BKN040,0.00,VWS V14.01,2013-06-04 18:43:00,
2013-06-04 13:48:00,74.2,59.0,30.04,SE,130,0.0,5.0,59,0.00,,BKN040,0.00,VWS V14.01,2013-06-04 18:48:00,
2013-06-04 13:53:00,73.9,59.2,30.04,East,94,0.0,1.0,60,0.00,,BKN040,0.00,VWS V14.01,2013-06-04 18:53:00,
2013-06-04 13:58:00,73.9,60.1,30.05,East,94,0.0,2.0,62,0.00,,BKN040,0.00,VWS V14.01,2013-06-04 18:58:00,
2013-06-04 14:03:00,73.7,59.4,30.04,ENE,63,0.0,2.0,61,0.00,,SCT040,0.00,VWS V14.01,2013-06-04 19:03:00,
2013-06-04 14:08:00,73.7,59.4,30.04,ENE,63,0.0,2.0,61,0.00,,SCT040,0.00,VWS V14.01,2013-06-04 19:08:00,
2013-06-04 14:13:00,74.5,60.6,30.04,ENE,63,0.0,0.0,62,0.00,,SCT040,0.00,VWS V14.01,2013-06-04 19:13:00,
2013-06-04 14:18:00,74.1,60.3,30.04,NE,51,1.0,3.0,62,0.00,,SCT040,0.00,VWS V14.01,2013-06-04 19:18:00,
2013-06-04 14:23:00,73.9,60.5,30.05,NE,53,1.0,3.0,63,0.00,,SCT040,0.00,VWS V14.01,2013-06-04 19:23:00,
2013-06-04 14:28:00,73.2,59.0,30.04,NE,56,1.0,3.0,61,0.00,,SCT040,0.00,VWS V14.01,2013-06-04 19:28:00,
2013-06-04 14:33:00,73.4,59.6,30.04,East,83,2.0,2.0,62,0.00,,SCT040,0.00,VWS V14.01,2013-06-04 19:33:00,
2013-06-04 14:38:00,73.3,59.0,30.04,ENE,62,0.0,6.0,61,0.00,,SCT040,0.00,VWS V14.01,2013-06-04 19:38:00,
2013-06-04 14:43:00,73.6,59.3,30.04,ENE,62,0.0,1.0,61,0.00,,SCT044,0.00,VWS V14.01,2013-06-04 19:43:00,
2013-06-04 14:48:00,74.5,59.7,30.03,SE,128,0.0,6.0,60,0.00,,SCT044,0.00,VWS V14.01,2013-06-04 19:48:00,
2013-06-04 14:53:00,74.2,58.5,30.04,SE,132,0.0,4.0,58,0.00,,SCT044,0.00,VWS V14.01,2013-06-04 19:53:00,
2013-06-04 14:58:00,74.9,61.0,30.04,NNE,28,1.0,4.0,62,0.00,,SCT044,0.00,VWS V14.01,2013-06-04 19:58:00,
2013-06-04 15:03:00,75.4,60.1,30.04,North,355,0.0,4.0,59,0.00,,BKN044,0.00,VWS V14.01,2013-06-04 20:03:00,
2013-06-04 15:08:00,75.5,60.2,30.03,ENE,59,0.0,4.0,59,0.00,,BKN044,0.00,VWS V14.01,2013-06-04 20:08:00,
2013-06-04 15:13:00,75.3,59.0,30.03,ENE,59,0.0,0.0,57,0.00,,BKN044,0.00,VWS V14.01,2013-06-04 20:13:00,
2013-06-04 15:18:00,75.2,59.9,30.03,ENE,59,0.0,1.0,59,0.00,,BKN044,0.00,VWS V14.01,2013-06-04 20:18:00,
2013-06-04 15:23:00,75.2,59.4,30.03,ESE,113,0.0,3.0,58,0.00,,BKN044,0.00,VWS V14.01,2013-06-04 20:23:00,
2013-06-04 15:28:00,74.1,58.4,30.04,SE,135,0.0,7.0,58,0.00,,BKN044,0.00,VWS V14.01,2013-06-04 20:28:00,
2013-06-04 15:33:00,74.2,59.4,30.03,East,90,1.0,5.0,60,0.00,,SCT042,0.00,VWS V14.01,2013-06-04 20:33:00,
2013-06-04 15:38:00,73.9,59.2,30.03,ENE,76,0.0,5.0,60,0.00,,SCT042,0.00,VWS V14.01,2013-06-04 20:38:00,
2013-06-04 15:43:00,74.1,59.8,30.03,ENE,76,0.0,0.0,61,0.00,,SCT042,0.00,VWS V14.01,2013-06-04 20:43:00,
2013-06-04 15:48:00,74.5,60.2,30.03,East,80,1.0,1.0,61,0.00,,SCT042,0.00,VWS V14.01,2013-06-04 20:48:00,
2013-06-04 15:53:00,74.6,59.8,30.03,NE,51,0.0,3.0,60,0.00,,SCT042,0.00,VWS V14.01,2013-06-04 20:53:00,
2013-06-04 15:58:00,74.8,60.0,30.02,ENE,73,0.0,3.0,60,0.00,,SCT042,0.00,VWS V14.01,2013-06-04 20:58:00,
2013-06-04 16:03:00,74.6,59.3,30.02,ENE,74,0.0,4.0,59,0.00,,BKN050,0.00,VWS V14.01,2013-06-04 21:03:00,
2013-06-04 16:08:00,74.5,59.2,30.02,SE,143,1.0,4.0,59,0.00,,BKN050,0.00,VWS V14.01,2013-06-04 21:08:00,
2013-06-04 16:13:00,74.2,59.0,30.02,East,80,0.0,0.0,59,0.00,,BKN050,0.00,VWS V14.01,2013-06-04 21:13:00,
2013-06-04 16:18:00,74.2,59.0,30.02,East,80,0.0,1.0,59,0.00,,BKN050,0.00,VWS V14.01,2013-06-04 21:18:00,
2013-06-04 16:23:00,73.9,59.2,30.02,ESE,102,0.0,2.0,60,0.00,,BKN050,0.00,VWS V14.01,2013-06-04 21:23:00,
2013-06-04 16:28:00,74.1,58.9,30.02,NE,54,0.0,4.0,59,0.00,,BKN050,0.00,VWS V14.01,2013-06-04 21:28:00,
2013-06-04 16:33:00,74.5,59.7,30.01,East,100,0.0,0.0,60,0.00,,BKN050,0.00,VWS V14.01,2013-06-04 21:33:00,
2013-06-04 16:38:00,74.8,59.0,30.01,East,84,1.0,5.0,58,0.00,,BKN050,0.00,VWS V14.01,2013-06-04 21:38:00,
2013-06-04 16:43:00,75.1,59.8,30.01,East,99,1.0,4.0,59,0.00,,CLR,0.00,VWS V14.01,2013-06-04 21:43:00,
2013-06-04 16:48:00,74.6,58.9,30.01,SE,124,0.0,5.0,58,0.00,,CLR,0.00,VWS V14.01,2013-06-04 21:48:00,
2013-06-04 16:53:00,74.3,59.1,30.01,ESE,120,1.0,2.0,59,0.00,,CLR,0.00,VWS V14.01,2013-06-04 21:53:00,
2013-06-04 16:58:00,73.9,59.2,30.00,ESE,121,0.0,5.0,60,0.00,,CLR,0.00,VWS V14.01,2013-06-04 21:58:00,
2013-06-04 17:03:00,74.1,59.3,30.00,East,101,2.0,5.0,60,0.00,,CLR,0.00,VWS V14.01,2013-06-04 22:03:00,
2013-06-04 17:08:00,74.0,59.7,30.01,ENE,78,1.0,5.0,61,0.00,,CLR,0.00,VWS V14.01,2013-06-04 22:08:00,
2013-06-04 17:13:00,74.1,59.3,30.00,East,93,0.0,2.0,60,0.00,,CLR,0.00,VWS V14.01,2013-06-04 22:13:00,
2013-06-04 17:18:00,74.3,59.5,30.00,East,88,0.0,2.0,60,0.00,,CLR,0.00,VWS V14.01,2013-06-04 22:18:00,
2013-06-04 17:23:00,74.0,60.2,30.00,SSE,155,2.0,5.0,62,0.00,,CLR,0.00,VWS V14.01,2013-06-04 22:23:00,
2013-06-04 17:28:00,73.9,60.5,30.00,SSE,152,0.0,5.0,63,0.00,,CLR,0.00,VWS V14.01,2013-06-04 22:28:00,
2013-06-04 17:33:00,73.9,60.1,30.00,SE,132,2.0,2.0,62,0.00,,CLR,0.00,VWS V14.01,2013-06-04 22:33:00,
2013-06-04 17:38:00,73.8,60.0,29.99,SE,137,2.0,7.0,62,0.00,,CLR,0.00,VWS V14.01,2013-06-04 22:38:00,
2013-06-04 17:43:00,73.9,60.1,29.99,ENE,78,0.0,2.0,62,0.00,,CLR,0.00,VWS V14.01,2013-06-04 22:43:00,
2013-06-04 17:48:00,73.8,60.4,29.99,ESE,108,0.0,6.0,63,0.00,,CLR,0.00,VWS V14.01,2013-06-04 22:48:00,
2013-06-04 17:53:00,73.7,60.3,29.98,East,92,1.0,4.0,63,0.00,,CLR,0.00,VWS V14.01,2013-06-04 22:53:00,
2013-06-04 17:58:00,73.5,59.7,29.98,ESE,122,0.0,7.0,62,0.00,,CLR,0.00,VWS V14.01,2013-06-04 22:58:00,
2013-06-04 18:03:00,73.3,59.5,29.98,ESE,109,2.0,5.0,62,0.00,,CLR,0.00,VWS V14.01,2013-06-04 23:03:00,
2013-06-04 18:08:00,73.1,59.3,29.98,SE,125,0.0,5.0,62,0.00,,CLR,0.00,VWS V14.01,2013-06-04 23:08:00,
2013-06-04 18:13:00,73.0,59.7,29.98,SSE,157,0.0,1.0,63,0.00,,CLR,0.00,VWS V14.01,2013-06-04 23:13:00,
2013-06-04 18:18:00,72.9,60.0,29.98,ESE,116,0.0,5.0,64,0.00,,CLR,0.00,VWS V14.01,2013-06-04 23:18:00,
2013-06-04 18:23:00,72.8,59.9,29.98,ESE,113,0.0,0.0,64,0.00,,CLR,0.00,VWS V14.01,2013-06-04 23:23:00,
2013-06-04 18:28:00,72.7,60.3,29.98,ESE,107,1.0,4.0,65,0.00,,CLR,0.00,VWS V14.01,2013-06-04 23:28:00,
2013-06-04 18:33:00,72.6,60.2,29.98,ESE,107,0.0,0.0,65,0.00,,CLR,0.00,VWS V14.01,2013-06-04 23:33:00,
2013-06-04 18:38:00,72.5,60.1,29.98,ESE,107,0.0,1.0,65,0.00,,CLR,0.00,VWS V14.01,2013-06-04 23:38:00,
2013-06-04 18:43:00,72.5,60.1,29.98,ESE,107,0.0,0.0,65,0.00,,CLR,0.00,VWS V14.01,2013-06-04 23:43:00,
2013-06-04 18:48:00,72.5,60.1,29.98,ESE,107,0.0,0.0,65,0.00,,CLR,0.00,VWS V14.01,2013-06-04 23:48:00,
2013-06-04 18:53:00,72.5,60.1,29.99,ESE,107,0.0,0.0,65,0.00,,CLR,0.00,VWS V14.01,2013-06-04 23:53:00,
2013-06-04 18:58:00,72.4,60.0,29.99,ESE,107,0.0,0.0,65,0.00,,CLR,0.00,VWS V14.01,2013-06-04 23:58:00,
2013-06-04 19:03:00,72.4,60.4,29.99,ESE,107,0.0,0.0,66,0.00,,CLR,0.00,VWS V14.01,2013-06-05 00:03:00,
2013-06-04 19:08:00,72.4,60.8,29.99,ESE,107,0.0,0.0,67,0.00,,CLR,0.00,VWS V14.01,2013-06-05 00:08:00,
2013-06-04 19:13:00,72.3,60.7,29.99,ESE,107,0.0,0.0,67,0.00,,CLR,0.00,VWS V14.01,2013-06-05 00:13:00,
2013-06-04 19:18:00,72.2,60.7,29.98,ESE,107,0.0,0.0,67,0.00,,CLR,0.00,VWS V14.01,2013-06-05 00:18:00,
2013-06-04 19:23:00,72.0,60.5,29.98,ESE,107,0.0,0.0,67,0.00,,CLR,0.00,VWS V14.01,2013-06-05 00:23:00,
2013-06-04 19:28:00,71.8,60.7,29.98,ESE,107,0.0,0.0,68,0.00,,CLR,0.00,VWS V14.01,2013-06-05 00:28:00,
2013-06-04 19:33:00,71.6,60.5,29.99,ESE,107,0.0,0.0,68,0.00,,CLR,0.00,VWS V14.01,2013-06-05 00:33:00,
2013-06-04 19:38:00,71.5,60.4,29.98,ESE,107,0.0,0.0,68,0.00,,CLR,0.00,VWS V14.01,2013-06-05 00:38:00,
2013-06-04 19:43:00,71.2,60.5,29.99,ESE,107,0.0,0.0,69,0.00,,CLR,0.00,VWS V14.01,2013-06-05 00:43:00,
2013-06-04 19:48:00,70.9,60.6,29.99,ESE,107,0.0,0.0,70,0.00,,CLR,0.00,VWS V14.01,2013-06-05 00:48:00,
2013-06-04 19:53:00,70.6,60.3,29.99,ESE,107,0.0,0.0,70,0.00,,CLR,0.00,VWS V14.01,2013-06-05 00:53:00,
2013-06-04 19:58:00,70.3,60.9,29.99,ESE,107,0.0,0.0,72,0.00,,CLR,0.00,VWS V14.01,2013-06-05 00:58:00,
2013-06-04 20:03:00,70.0,60.6,29.99,ESE,107,0.0,0.0,72,0.00,,CLR,0.00,VWS V14.01,2013-06-05 01:03:00,
2013-06-04 20:08:00,69.8,60.8,29.99,ESE,107,0.0,0.0,73,0.00,,CLR,0.00,VWS V14.01,2013-06-05 01:08:00,
2013-06-04 20:13:00,69.5,60.9,29.99,ESE,107,0.0,0.0,74,0.00,,CLR,0.00,VWS V14.01,2013-06-05 01:13:00,
2013-06-04 20:18:00,69.4,60.8,29.99,ESE,107,0.0,0.0,74,0.00,,CLR,0.00,VWS V14.01,2013-06-05 01:18:00,
2013-06-04 20:23:00,69.1,60.5,30.00,ESE,107,0.0,0.0,74,0.00,,CLR,0.00,VWS V14.01,2013-06-05 01:23:00,
2013-06-04 20:29:00,68.8,60.6,30.00,ESE,107,0.0,0.0,75,0.00,,CLR,0.00,VWS V14.01,2013-06-05 01:29:00,
2013-06-04 20:34:00,68.6,60.4,30.00,ESE,107,0.0,0.0,75,0.00,,CLR,0.00,VWS V14.01,2013-06-05 01:34:00,
2013-06-04 20:39:00,68.5,60.6,30.00,ESE,107,0.0,0.0,76,0.00,,CLR,0.00,VWS V14.01,2013-06-05 01:39:00,
2013-06-04 20:44:00,68.3,60.5,30.00,ESE,107,0.0,0.0,76,0.00,,CLR,0.00,VWS V14.01,2013-06-05 01:44:00,
2013-06-04 20:49:00,68.2,60.7,30.00,ESE,107,0.0,0.0,77,0.00,,CLR,0.00,VWS V14.01,2013-06-05 01:49:00,
2013-06-04 20:54:00,67.9,60.4,30.00,ESE,107,0.0,0.0,77,0.00,,CLR,0.00,VWS V14.01,2013-06-05 01:54:00,
2013-06-04 20:59:00,67.8,60.7,30.00,ESE,107,0.0,0.0,78,0.00,,CLR,0.00,VWS V14.01,2013-06-05 01:59:00,
2013-06-04 21:04:00,67.6,60.5,30.00,ESE,107,0.0,0.0,78,0.00,,CLR,0.00,VWS V14.01,2013-06-05 02:04:00,
2013-06-04 21:09:00,67.5,60.4,30.00,ESE,107,0.0,0.0,78,0.00,,CLR,0.00,VWS V14.01,2013-06-05 02:09:00,
2013-06-04 21:14:00,67.3,60.2,30.00,ESE,107,0.0,0.0,78,0.00,,CLR,0.00,VWS V14.01,2013-06-05 02:14:00,
2013-06-04 21:19:00,67.2,60.5,30.00,ESE,107,0.0,0.0,79,0.00,,CLR,0.00,VWS V14.01,2013-06-05 02:19:00,
2013-06-04 21:24:00,67.1,60.4,30.00,ESE,107,0.0,0.0,79,0.00,,CLR,0.00,VWS V14.01,2013-06-05 02:24:00,
2013-06-04 21:29:00,67.0,60.3,30.00,ESE,107,0.0,0.0,79,0.00,,CLR,0.00,VWS V14.01,2013-06-05 02:29:00,
2013-06-04 21:34:00,66.9,60.2,30.00,ESE,107,0.0,0.0,79,0.00,,CLR,0.00,VWS V14.01,2013-06-05 02:34:00,
2013-06-04 21:39:00,66.9,60.5,30.00,ESE,107,0.0,0.0,80,0.00,,CLR,0.00,VWS V14.01,2013-06-05 02:39:00,
2013-06-04 21:44:00,66.8,60.1,30.00,ESE,107,0.0,0.0,79,0.00,,CLR,0.00,VWS V14.01,2013-06-05 02:44:00,
2013-06-04 21:49:00,66.8,60.4,30.01,ESE,107,0.0,0.0,80,0.00,,CLR,0.00,VWS V14.01,2013-06-05 02:49:00,
2013-06-04 21:54:00,66.8,60.4,30.01,ESE,107,0.0,1.0,80,0.00,,CLR,0.00,VWS V14.01,2013-06-05 02:54:00,
2013-06-04 21:59:00,66.7,60.3,30.01,ESE,107,0.0,1.0,80,0.00,,CLR,0.00,VWS V14.01,2013-06-05 02:59:00,
2013-06-04 22:04:00,66.8,60.1,30.01,ESE,107,0.0,2.0,79,0.00,,CLR,0.00,VWS V14.01,2013-06-05 03:04:00,
2013-06-04 22:09:00,66.9,60.2,30.00,ESE,107,1.0,2.0,79,0.00,,CLR,0.00,VWS V14.01,2013-06-05 03:09:00,
2013-06-04 22:14:00,67.0,60.3,30.00,ESE,107,0.0,1.0,79,0.00,,CLR,0.00,VWS V14.01,2013-06-05 03:14:00,
2013-06-04 22:19:00,67.1,60.4,30.00,ESE,107,1.0,2.0,79,0.00,,CLR,0.00,VWS V14.01,2013-06-05 03:19:00,
2013-06-04 22:24:00,67.2,60.5,30.00,ESE,107,1.0,1.0,79,0.00,,CLR,0.00,VWS V14.01,2013-06-05 03:24:00,
2013-06-04 22:29:00,67.3,60.2,30.00,ESE,107,0.0,1.0,78,0.00,,CLR,0.00,VWS V14.01,2013-06-05 03:29:00,
2013-06-04 22:34:00,67.3,60.2,30.00,ESE,107,0.0,1.0,78,0.00,,CLR,0.00,VWS V14.01,2013-06-05 03:34:00,
2013-06-04 22:39:00,67.3,60.2,30.00,ESE,107,0.0,1.0,78,0.00,,CLR,0.00,VWS V14.01,2013-06-05 03:39:00,
2013-06-04 22:44:00,67.2,60.1,30.00,ESE,107,0.0,0.0,78,0.00,,CLR,0.00,VWS V14.01,2013-06-05 03:44:00,
2013-06-04 22:49:00,67.1,60.4,30.00,ESE,107,0.0,4.0,79,0.00,,CLR,0.00,VWS V14.01,2013-06-05 03:49:00,
2013-06-04 22:54:00,67.0,60.3,30.00,ESE,107,0.0,0.0,79,0.00,,CLR,0.00,VWS V14.01,2013-06-05 03:54:00,
2013-06-04 22:59:00,66.9,60.2,30.00,ESE,107,0.0,1.0,79,0.00,,CLR,0.00,VWS V14.01,2013-06-05 03:59:00,
2013-06-04 23:01:00,66.9,60.2,30.00,ESE,107,0.0,1.0,79,0.00,,CLR,0.00,VWS V14.01,2013-06-05 04:01:00,
2013-06-04 23:04:00,66.8,60.1,30.00,ESE,107,0.0,1.0,79,0.00,,CLR,0.00,VWS V14.01,2013-06-05 04:04:00,
2013-06-04 23:09:00,66.7,60.0,30.00,ESE,107,0.0,1.0,79,0.00,,CLR,0.00,VWS V14.01,2013-06-05 04:09:00,
2013-06-04 23:11:00,66.7,60.0,29.99,ESE,107,0.0,1.0,79,0.00,,CLR,0.00,VWS V14.01,2013-06-05 04:11:00,
2013-06-04 23:14:00,66.6,60.2,30.00,ESE,107,0.0,0.0,80,0.00,,CLR,0.00,VWS V14.01,2013-06-05 04:14:00,
2013-06-04 23:19:00,66.5,60.2,30.00,ESE,107,0.0,0.0,80,0.00,,CLR,0.00,VWS V14.01,2013-06-05 04:19:00,
2013-06-04 23:24:00,66.4,60.0,30.00,ESE,107,0.0,0.0,80,0.00,,CLR,0.00,VWS V14.01,2013-06-05 04:24:00,
2013-06-04 23:29:00,66.3,60.0,30.00,ESE,107,0.0,0.0,80,0.00,,CLR,0.00,VWS V14.01,2013-06-05 04:29:00,
2013-06-04 23:34:00,66.2,59.9,30.00,ESE,107,0.0,0.0,80,0.00,,CLR,0.00,VWS V14.01,2013-06-05 04:34:00,
2013-06-04 23:39:00,66.1,59.8,30.00,ESE,107,0.0,0.0,80,0.00,,CLR,0.00,VWS V14.01,2013-06-05 04:39:00,
2013-06-04 23:44:00,66.0,59.7,29.99,ESE,107,0.0,0.0,80,0.00,,CLR,0.00,VWS V14.01,2013-06-05 04:44:00,
2013-06-04 23:49:00,65.8,59.8,29.99,ESE,107,0.0,0.0,81,0.00,,CLR,0.00,VWS V14.01,2013-06-05 04:49:00,
2013-06-04 23:54:00,65.6,59.6,30.00,ESE,107,0.0,0.0,81,0.00,,CLR,0.00,VWS V14.01,2013-06-05 04:54:00,
2013-06-04 23:59:00,65.4,59.4,29.99,ESE,107,0.0,0.0,81,0.00,,CLR,0.00,VWS V14.01,2013-06-05 04:59:00,